sensor_id;sensor_type;location;lat;lon;timestamp;P1;durP1;ratioP1;P2;durP2;ratioP2
8094;SDS011;4090;49.270;8.696;2022-09-12T00:01:06;10.68;;;7.38;;
8094;SDS011;4090;49.270;8.696;2022-09-12T00:03:50;11.32;;;7.40;;
8094;SDS011;4090;49.270;8.696;2022-09-12T00:06:32;11.90;;;7.32;;
8094;SDS011;4090;49.270;8.696;2022-09-12T00:09:16;10.07;;;7.43;;
8094;SDS011;4090;49.270;8.696;2022-09-12T00:11:59;10.18;;;6.93;;
8094;SDS011;4090;49.270;8.696;2022-09-12T00:14:41;12.60;;;7.03;;
8094;SDS011;4090;49.270;8.696;2022-09-12T00:17:23;13.10;;;7.53;;
8094;SDS011;4090;49.270;8.696;2022-09-12T00:20:06;9.25;;;6.78;;
8094;SDS011;4090;49.270;8.696;2022-09-12T00:22:49;11.02;;;6.65;;
8094;SDS011;4090;49.270;8.696;2022-09-12T00:25:31;9.63;;;7.05;;
8094;SDS011;4090;49.270;8.696;2022-09-12T00:28:15;8.65;;;6.55;;
8094;SDS011;4090;49.270;8.696;2022-09-12T00:31:03;8.73;;;6.38;;
8094;SDS011;4090;49.270;8.696;2022-09-12T00:33:46;8.27;;;6.40;;
8094;SDS011;4090;49.270;8.696;2022-09-12T00:36:28;10.75;;;7.00;;
8094;SDS011;4090;49.270;8.696;2022-09-12T00:39:11;9.20;;;6.82;;
8094;SDS011;4090;49.270;8.696;2022-09-12T00:41:56;9.05;;;6.97;;
8094;SDS011;4090;49.270;8.696;2022-09-12T00:44:43;10.10;;;7.15;;
8094;SDS011;4090;49.270;8.696;2022-09-12T00:47:30;12.23;;;7.88;;
8094;SDS011;4090;49.270;8.696;2022-09-12T00:50:13;9.02;;;6.90;;
8094;SDS011;4090;49.270;8.696;2022-09-12T00:52:56;11.40;;;7.68;;
8094;SDS011;4090;49.270;8.696;2022-09-12T00:55:43;11.23;;;7.07;;
8094;SDS011;4090;49.270;8.696;2022-09-12T00:58:30;10.68;;;7.43;;
8094;SDS011;4090;49.270;8.696;2022-09-12T01:01:21;9.45;;;7.05;;
8094;SDS011;4090;49.270;8.696;2022-09-12T01:04:03;9.13;;;7.25;;
8094;SDS011;4090;49.270;8.696;2022-09-12T01:06:45;11.23;;;7.00;;
8094;SDS011;4090;49.270;8.696;2022-09-12T01:09:28;10.48;;;7.32;;
8094;SDS011;4090;49.270;8.696;2022-09-12T01:12:11;10.70;;;7.10;;
8094;SDS011;4090;49.270;8.696;2022-09-12T01:14:55;12.45;;;7.75;;
8094;SDS011;4090;49.270;8.696;2022-09-12T01:17:40;11.32;;;7.63;;
8094;SDS011;4090;49.270;8.696;2022-09-12T01:20:36;9.23;;;7.22;;
8094;SDS011;4090;49.270;8.696;2022-09-12T01:30:17;12.13;;;7.07;;
8094;SDS011;4090;49.270;8.696;2022-09-12T01:33:15;11.65;;;7.03;;
8094;SDS011;4090;49.270;8.696;2022-09-12T01:36:19;9.63;;;6.78;;
8094;SDS011;4090;49.270;8.696;2022-09-12T01:39:16;10.23;;;6.60;;
8094;SDS011;4090;49.270;8.696;2022-09-12T01:42:09;10.02;;;6.75;;
8094;SDS011;4090;49.270;8.696;2022-09-12T01:49:20;13.77;;;6.70;;
8094;SDS011;4090;49.270;8.696;2022-09-12T01:52:07;10.50;;;7.10;;
8094;SDS011;4090;49.270;8.696;2022-09-12T01:54:55;11.50;;;7.70;;
8094;SDS011;4090;49.270;8.696;2022-09-12T01:57:42;11.68;;;7.35;;
8094;SDS011;4090;49.270;8.696;2022-09-12T02:00:27;11.45;;;7.65;;
8094;SDS011;4090;49.270;8.696;2022-09-12T02:03:09;11.75;;;7.93;;
8094;SDS011;4090;49.270;8.696;2022-09-12T02:05:57;11.30;;;7.65;;
8094;SDS011;4090;49.270;8.696;2022-09-12T02:08:46;13.98;;;7.70;;
8094;SDS011;4090;49.270;8.696;2022-09-12T02:11:32;12.63;;;7.47;;
8094;SDS011;4090;49.270;8.696;2022-09-12T02:14:17;10.52;;;7.43;;
8094;SDS011;4090;49.270;8.696;2022-09-12T02:17:04;10.65;;;7.07;;
8094;SDS011;4090;49.270;8.696;2022-09-12T02:19:50;12.23;;;7.68;;
8094;SDS011;4090;49.270;8.696;2022-09-12T02:22:37;11.73;;;6.97;;
8094;SDS011;4090;49.270;8.696;2022-09-12T02:25:21;11.27;;;7.30;;
8094;SDS011;4090;49.270;8.696;2022-09-12T02:28:08;10.82;;;7.32;;
8094;SDS011;4090;49.270;8.696;2022-09-12T02:30:55;14.73;;;7.45;;
8094;SDS011;4090;49.270;8.696;2022-09-12T02:33:48;11.73;;;7.70;;
8094;SDS011;4090;49.270;8.696;2022-09-12T02:36:42;13.77;;;8.18;;
8094;SDS011;4090;49.270;8.696;2022-09-12T02:39:31;11.27;;;6.97;;
8094;SDS011;4090;49.270;8.696;2022-09-12T02:42:13;15.93;;;7.75;;
8094;SDS011;4090;49.270;8.696;2022-09-12T02:44:55;10.18;;;6.88;;
8094;SDS011;4090;49.270;8.696;2022-09-12T02:47:38;9.27;;;7.03;;
8094;SDS011;4090;49.270;8.696;2022-09-12T02:50:24;11.15;;;7.50;;
8094;SDS011;4090;49.270;8.696;2022-09-12T02:53:06;10.75;;;7.22;;
8094;SDS011;4090;49.270;8.696;2022-09-12T02:55:51;11.07;;;7.43;;
8094;SDS011;4090;49.270;8.696;2022-09-12T02:58:33;12.05;;;7.82;;
8094;SDS011;4090;49.270;8.696;2022-09-12T03:01:18;12.70;;;8.32;;
8094;SDS011;4090;49.270;8.696;2022-09-12T03:04:15;10.48;;;7.25;;
8094;SDS011;4090;49.270;8.696;2022-09-12T03:07:15;11.68;;;6.88;;
8094;SDS011;4090;49.270;8.696;2022-09-12T03:10:06;11.73;;;7.18;;
8094;SDS011;4090;49.270;8.696;2022-09-12T03:12:58;12.85;;;7.28;;
8094;SDS011;4090;49.270;8.696;2022-09-12T03:15:49;10.82;;;7.35;;
8094;SDS011;4090;49.270;8.696;2022-09-12T03:18:40;11.60;;;7.40;;
8094;SDS011;4090;49.270;8.696;2022-09-12T03:21:30;14.77;;;7.63;;
8094;SDS011;4090;49.270;8.696;2022-09-12T03:24:16;10.35;;;7.47;;
8094;SDS011;4090;49.270;8.696;2022-09-12T03:27:03;14.55;;;7.45;;
8094;SDS011;4090;49.270;8.696;2022-09-12T03:29:51;12.30;;;7.28;;
8094;SDS011;4090;49.270;8.696;2022-09-12T03:32:41;11.15;;;7.38;;
8094;SDS011;4090;49.270;8.696;2022-09-12T03:35:25;11.02;;;6.85;;
8094;SDS011;4090;49.270;8.696;2022-09-12T03:38:06;12.90;;;7.30;;
8094;SDS011;4090;49.270;8.696;2022-09-12T03:40:48;10.27;;;6.72;;
8094;SDS011;4090;49.270;8.696;2022-09-12T03:43:30;10.05;;;7.00;;
8094;SDS011;4090;49.270;8.696;2022-09-12T03:46:13;11.15;;;7.43;;
8094;SDS011;4090;49.270;8.696;2022-09-12T03:48:55;10.00;;;6.53;;
8094;SDS011;4090;49.270;8.696;2022-09-12T03:51:37;10.52;;;6.80;;
8094;SDS011;4090;49.270;8.696;2022-09-12T03:54:19;9.85;;;6.53;;
8094;SDS011;4090;49.270;8.696;2022-09-12T03:57:02;10.07;;;6.82;;
8094;SDS011;4090;49.270;8.696;2022-09-12T03:59:44;15.13;;;6.90;;
8094;SDS011;4090;49.270;8.696;2022-09-12T04:02:27;10.88;;;6.85;;
8094;SDS011;4090;49.270;8.696;2022-09-12T04:05:09;12.15;;;6.65;;
8094;SDS011;4090;49.270;8.696;2022-09-12T04:07:50;12.80;;;6.80;;
8094;SDS011;4090;49.270;8.696;2022-09-12T04:10:33;12.30;;;7.07;;
8094;SDS011;4090;49.270;8.696;2022-09-12T04:13:14;11.05;;;6.68;;
8094;SDS011;4090;49.270;8.696;2022-09-12T04:15:57;16.08;;;7.43;;
8094;SDS011;4090;49.270;8.696;2022-09-12T04:18:40;14.18;;;7.05;;
8094;SDS011;4090;49.270;8.696;2022-09-12T04:21:23;13.27;;;7.32;;
8094;SDS011;4090;49.270;8.696;2022-09-12T04:24:05;10.15;;;7.32;;
8094;SDS011;4090;49.270;8.696;2022-09-12T04:26:46;12.23;;;7.60;;
8094;SDS011;4090;49.270;8.696;2022-09-12T04:29:28;13.90;;;7.90;;
8094;SDS011;4090;49.270;8.696;2022-09-12T04:32:10;10.98;;;7.53;;
8094;SDS011;4090;49.270;8.696;2022-09-12T04:34:53;13.07;;;7.80;;
8094;SDS011;4090;49.270;8.696;2022-09-12T04:37:35;13.57;;;8.50;;
8094;SDS011;4090;49.270;8.696;2022-09-12T04:40:17;14.20;;;9.02;;
8094;SDS011;4090;49.270;8.696;2022-09-12T04:42:59;12.27;;;8.07;;
8094;SDS011;4090;49.270;8.696;2022-09-12T04:45:41;11.50;;;7.85;;
8094;SDS011;4090;49.270;8.696;2022-09-12T04:48:23;12.85;;;7.80;;
8094;SDS011;4090;49.270;8.696;2022-09-12T04:51:08;11.90;;;8.00;;
8094;SDS011;4090;49.270;8.696;2022-09-12T04:53:51;12.57;;;7.53;;
8094;SDS011;4090;49.270;8.696;2022-09-12T04:56:36;18.10;;;7.95;;
8094;SDS011;4090;49.270;8.696;2022-09-12T04:59:20;11.93;;;7.75;;
8094;SDS011;4090;49.270;8.696;2022-09-12T05:02:02;12.00;;;7.07;;
8094;SDS011;4090;49.270;8.696;2022-09-12T05:04:45;12.63;;;7.40;;
8094;SDS011;4090;49.270;8.696;2022-09-12T05:07:28;11.50;;;7.65;;
8094;SDS011;4090;49.270;8.696;2022-09-12T05:10:10;12.57;;;7.25;;
8094;SDS011;4090;49.270;8.696;2022-09-12T05:12:52;11.35;;;7.50;;
8094;SDS011;4090;49.270;8.696;2022-09-12T05:15:34;12.10;;;7.47;;
8094;SDS011;4090;49.270;8.696;2022-09-12T05:18:16;13.15;;;6.90;;
8094;SDS011;4090;49.270;8.696;2022-09-12T05:20:58;13.07;;;8.20;;
8094;SDS011;4090;49.270;8.696;2022-09-12T05:23:42;15.85;;;7.47;;
8094;SDS011;4090;49.270;8.696;2022-09-12T05:26:24;13.25;;;7.38;;
8094;SDS011;4090;49.270;8.696;2022-09-12T05:29:06;11.43;;;7.53;;
8094;SDS011;4090;49.270;8.696;2022-09-12T05:31:48;11.75;;;7.70;;
8094;SDS011;4090;49.270;8.696;2022-09-12T05:34:31;15.15;;;8.20;;
8094;SDS011;4090;49.270;8.696;2022-09-12T05:37:13;13.10;;;7.82;;
8094;SDS011;4090;49.270;8.696;2022-09-12T05:39:56;10.80;;;7.40;;
8094;SDS011;4090;49.270;8.696;2022-09-12T05:42:38;13.75;;;7.90;;
8094;SDS011;4090;49.270;8.696;2022-09-12T05:45:20;14.30;;;8.82;;
8094;SDS011;4090;49.270;8.696;2022-09-12T05:48:02;13.73;;;8.45;;
8094;SDS011;4090;49.270;8.696;2022-09-12T05:50:44;13.57;;;8.02;;
8094;SDS011;4090;49.270;8.696;2022-09-12T05:53:27;13.45;;;7.68;;
8094;SDS011;4090;49.270;8.696;2022-09-12T05:56:12;12.15;;;8.07;;
8094;SDS011;4090;49.270;8.696;2022-09-12T05:58:55;14.07;;;7.55;;
8094;SDS011;4090;49.270;8.696;2022-09-12T06:01:38;14.48;;;8.27;;
8094;SDS011;4090;49.270;8.696;2022-09-12T06:04:21;11.10;;;7.53;;
8094;SDS011;4090;49.270;8.696;2022-09-12T06:07:03;13.27;;;8.23;;
8094;SDS011;4090;49.270;8.696;2022-09-12T06:09:45;13.82;;;8.38;;
8094;SDS011;4090;49.270;8.696;2022-09-12T06:12:29;14.13;;;8.20;;
8094;SDS011;4090;49.270;8.696;2022-09-12T06:15:10;12.70;;;7.90;;
8094;SDS011;4090;49.270;8.696;2022-09-12T06:17:53;12.80;;;8.00;;
8094;SDS011;4090;49.270;8.696;2022-09-12T06:20:35;13.60;;;7.22;;
8094;SDS011;4090;49.270;8.696;2022-09-12T06:23:17;12.40;;;7.75;;
8094;SDS011;4090;49.270;8.696;2022-09-12T06:25:59;10.35;;;6.90;;
8094;SDS011;4090;49.270;8.696;2022-09-12T06:28:43;11.48;;;7.47;;
8094;SDS011;4090;49.270;8.696;2022-09-12T06:31:26;12.15;;;8.23;;
8094;SDS011;4090;49.270;8.696;2022-09-12T06:34:12;14.48;;;8.05;;
8094;SDS011;4090;49.270;8.696;2022-09-12T06:36:54;15.85;;;8.02;;
8094;SDS011;4090;49.270;8.696;2022-09-12T06:39:37;14.32;;;8.30;;
8094;SDS011;4090;49.270;8.696;2022-09-12T06:42:19;12.98;;;7.05;;
8094;SDS011;4090;49.270;8.696;2022-09-12T06:45:11;13.10;;;7.18;;
8094;SDS011;4090;49.270;8.696;2022-09-12T06:47:55;12.57;;;7.38;;
8094;SDS011;4090;49.270;8.696;2022-09-12T06:50:37;13.63;;;7.65;;
8094;SDS011;4090;49.270;8.696;2022-09-12T06:53:19;11.43;;;7.25;;
8094;SDS011;4090;49.270;8.696;2022-09-12T06:56:02;11.77;;;7.53;;
8094;SDS011;4090;49.270;8.696;2022-09-12T06:58:46;11.25;;;7.18;;
8094;SDS011;4090;49.270;8.696;2022-09-12T07:01:30;11.88;;;7.07;;
8094;SDS011;4090;49.270;8.696;2022-09-12T07:04:12;11.73;;;7.28;;
8094;SDS011;4090;49.270;8.696;2022-09-12T07:06:54;11.88;;;7.20;;
8094;SDS011;4090;49.270;8.696;2022-09-12T07:09:36;14.27;;;7.63;;
8094;SDS011;4090;49.270;8.696;2022-09-12T07:12:18;12.38;;;7.70;;
8094;SDS011;4090;49.270;8.696;2022-09-12T07:15:00;11.55;;;7.70;;
8094;SDS011;4090;49.270;8.696;2022-09-12T07:17:43;11.07;;;7.35;;
8094;SDS011;4090;49.270;8.696;2022-09-12T07:20:25;11.43;;;6.85;;
8094;SDS011;4090;49.270;8.696;2022-09-12T07:23:07;11.10;;;6.82;;
8094;SDS011;4090;49.270;8.696;2022-09-12T07:25:51;10.90;;;6.80;;
8094;SDS011;4090;49.270;8.696;2022-09-12T07:28:34;12.95;;;7.80;;
8094;SDS011;4090;49.270;8.696;2022-09-12T07:31:16;10.98;;;7.40;;
8094;SDS011;4090;49.270;8.696;2022-09-12T07:34:00;12.75;;;7.55;;
8094;SDS011;4090;49.270;8.696;2022-09-12T07:36:45;11.38;;;7.82;;
8094;SDS011;4090;49.270;8.696;2022-09-12T07:39:27;12.02;;;7.43;;
8094;SDS011;4090;49.270;8.696;2022-09-12T07:42:09;12.05;;;7.93;;
8094;SDS011;4090;49.270;8.696;2022-09-12T07:44:51;11.68;;;7.47;;
8094;SDS011;4090;49.270;8.696;2022-09-12T07:47:33;13.23;;;8.02;;
8094;SDS011;4090;49.270;8.696;2022-09-12T07:50:16;12.85;;;8.15;;
8094;SDS011;4090;49.270;8.696;2022-09-12T07:52:58;11.63;;;7.50;;
8094;SDS011;4090;49.270;8.696;2022-09-12T07:55:42;14.13;;;8.15;;
8094;SDS011;4090;49.270;8.696;2022-09-12T07:58:24;11.43;;;7.05;;
8094;SDS011;4090;49.270;8.696;2022-09-12T08:01:06;11.68;;;7.70;;
8094;SDS011;4090;49.270;8.696;2022-09-12T08:03:52;11.25;;;7.72;;
8094;SDS011;4090;49.270;8.696;2022-09-12T08:06:37;11.98;;;8.48;;
8094;SDS011;4090;49.270;8.696;2022-09-12T08:09:19;15.07;;;8.13;;
8094;SDS011;4090;49.270;8.696;2022-09-12T08:12:01;14.00;;;8.07;;
8094;SDS011;4090;49.270;8.696;2022-09-12T08:14:43;12.90;;;8.57;;
8094;SDS011;4090;49.270;8.696;2022-09-12T08:17:25;12.13;;;8.38;;
8094;SDS011;4090;49.270;8.696;2022-09-12T08:20:08;14.07;;;8.95;;
8094;SDS011;4090;49.270;8.696;2022-09-12T08:22:52;13.85;;;8.75;;
8094;SDS011;4090;49.270;8.696;2022-09-12T08:25:34;13.07;;;8.35;;
8094;SDS011;4090;49.270;8.696;2022-09-12T08:28:16;13.60;;;8.60;;
8094;SDS011;4090;49.270;8.696;2022-09-12T08:30:59;12.65;;;8.27;;
8094;SDS011;4090;49.270;8.696;2022-09-12T08:33:42;12.60;;;8.27;;
8094;SDS011;4090;49.270;8.696;2022-09-12T08:36:24;14.00;;;8.25;;
8094;SDS011;4090;49.270;8.696;2022-09-12T08:39:10;12.00;;;7.97;;
8094;SDS011;4090;49.270;8.696;2022-09-12T08:41:56;14.80;;;8.52;;
8094;SDS011;4090;49.270;8.696;2022-09-12T08:44:47;11.15;;;7.47;;
8094;SDS011;4090;49.270;8.696;2022-09-12T08:47:39;12.98;;;8.20;;
8094;SDS011;4090;49.270;8.696;2022-09-12T08:50:23;12.90;;;8.15;;
8094;SDS011;4090;49.270;8.696;2022-09-12T08:53:09;12.82;;;7.35;;
8094;SDS011;4090;49.270;8.696;2022-09-12T08:55:56;10.98;;;7.78;;
8094;SDS011;4090;49.270;8.696;2022-09-12T08:58:41;10.80;;;7.03;;
8094;SDS011;4090;49.270;8.696;2022-09-12T09:01:26;10.45;;;7.40;;
8094;SDS011;4090;49.270;8.696;2022-09-12T09:04:15;10.02;;;6.40;;
8094;SDS011;4090;49.270;8.696;2022-09-12T09:07:17;9.52;;;6.93;;
8094;SDS011;4090;49.270;8.696;2022-09-12T09:10:10;10.60;;;6.90;;
8094;SDS011;4090;49.270;8.696;2022-09-12T09:13:03;8.70;;;6.45;;
8094;SDS011;4090;49.270;8.696;2022-09-12T09:16:19;11.45;;;6.60;;
8094;SDS011;4090;49.270;8.696;2022-09-12T09:19:04;9.40;;;5.97;;
8094;SDS011;4090;49.270;8.696;2022-09-12T09:21:53;8.45;;;6.20;;
8094;SDS011;4090;49.270;8.696;2022-09-12T09:24:40;8.43;;;6.10;;
8094;SDS011;4090;49.270;8.696;2022-09-12T09:27:26;7.97;;;6.55;;
8094;SDS011;4090;49.270;8.696;2022-09-12T09:30:17;7.95;;;5.90;;
8094;SDS011;4090;49.270;8.696;2022-09-12T09:33:00;7.50;;;6.25;;
8094;SDS011;4090;49.270;8.696;2022-09-12T09:35:47;7.53;;;6.10;;
8094;SDS011;4090;49.270;8.696;2022-09-12T09:38:39;7.57;;;5.68;;
8094;SDS011;4090;49.270;8.696;2022-09-12T09:41:30;7.75;;;5.93;;
8094;SDS011;4090;49.270;8.696;2022-09-12T09:44:22;6.70;;;5.22;;
8094;SDS011;4090;49.270;8.696;2022-09-12T09:47:07;7.50;;;5.53;;
8094;SDS011;4090;49.270;8.696;2022-09-12T09:49:51;5.25;;;4.63;;
8094;SDS011;4090;49.270;8.696;2022-09-12T09:52:33;7.40;;;5.10;;
8094;SDS011;4090;49.270;8.696;2022-09-12T09:55:18;6.70;;;5.07;;
8094;SDS011;4090;49.270;8.696;2022-09-12T09:58:03;5.43;;;4.75;;
8094;SDS011;4090;49.270;8.696;2022-09-12T10:00:45;5.32;;;4.82;;
8094;SDS011;4090;49.270;8.696;2022-09-12T10:03:30;5.63;;;4.80;;
8094;SDS011;4090;49.270;8.696;2022-09-12T10:06:25;11.70;;;4.70;;
8094;SDS011;4090;49.270;8.696;2022-09-12T10:09:19;5.00;;;4.50;;
8094;SDS011;4090;49.270;8.696;2022-09-12T10:12:20;6.05;;;4.65;;
8094;SDS011;4090;49.270;8.696;2022-09-12T10:15:14;6.35;;;4.07;;
8094;SDS011;4090;49.270;8.696;2022-09-12T10:17:58;6.03;;;4.70;;
8094;SDS011;4090;49.270;8.696;2022-09-12T10:20:43;5.55;;;4.30;;
8094;SDS011;4090;49.270;8.696;2022-09-12T10:23:27;4.88;;;4.00;;
8094;SDS011;4090;49.270;8.696;2022-09-12T10:26:15;4.75;;;4.07;;
8094;SDS011;4090;49.270;8.696;2022-09-12T10:29:02;5.50;;;4.28;;
8094;SDS011;4090;49.270;8.696;2022-09-12T10:31:51;5.13;;;4.35;;
8094;SDS011;4090;49.270;8.696;2022-09-12T10:34:35;5.38;;;4.25;;
8094;SDS011;4090;49.270;8.696;2022-09-12T10:37:23;4.65;;;3.90;;
8094;SDS011;4090;49.270;8.696;2022-09-12T10:40:20;5.28;;;3.67;;
8094;SDS011;4090;49.270;8.696;2022-09-12T10:43:14;5.55;;;3.60;;
8094;SDS011;4090;49.270;8.696;2022-09-12T10:45:57;5.60;;;3.35;;
8094;SDS011;4090;49.270;8.696;2022-09-12T10:48:51;4.43;;;3.85;;
8094;SDS011;4090;49.270;8.696;2022-09-12T10:51:54;3.83;;;3.40;;
8094;SDS011;4090;49.270;8.696;2022-09-12T10:54:40;5.80;;;3.38;;
8094;SDS011;4090;49.270;8.696;2022-09-12T10:57:26;3.63;;;3.33;;
8094;SDS011;4090;49.270;8.696;2022-09-12T11:00:19;7.18;;;3.80;;
8094;SDS011;4090;49.270;8.696;2022-09-12T11:03:08;3.50;;;3.10;;
8094;SDS011;4090;49.270;8.696;2022-09-12T11:05:57;3.58;;;3.28;;
8094;SDS011;4090;49.270;8.696;2022-09-12T11:08:45;4.40;;;3.38;;
8094;SDS011;4090;49.270;8.696;2022-09-12T11:11:39;3.45;;;3.13;;
8094;SDS011;4090;49.270;8.696;2022-09-12T11:14:36;3.38;;;3.08;;
8094;SDS011;4090;49.270;8.696;2022-09-12T11:17:32;3.72;;;3.00;;
8094;SDS011;4090;49.270;8.696;2022-09-12T11:20:29;8.65;;;3.40;;
8094;SDS011;4090;49.270;8.696;2022-09-12T11:26:52;4.35;;;3.45;;
8094;SDS011;4090;49.270;8.696;2022-09-12T11:29:45;3.00;;;2.80;;
8094;SDS011;4090;49.270;8.696;2022-09-12T11:32:31;3.40;;;3.05;;
8094;SDS011;4090;49.270;8.696;2022-09-12T11:35:46;7.28;;;3.70;;
8094;SDS011;4090;49.270;8.696;2022-09-12T11:38:40;4.90;;;3.45;;
8094;SDS011;4090;49.270;8.696;2022-09-12T11:41:33;4.82;;;3.83;;
8094;SDS011;4090;49.270;8.696;2022-09-12T11:44:20;3.20;;;2.90;;
8094;SDS011;4090;49.270;8.696;2022-09-12T11:47:09;3.17;;;2.88;;
8094;SDS011;4090;49.270;8.696;2022-09-12T11:49:53;3.15;;;2.60;;
8094;SDS011;4090;49.270;8.696;2022-09-12T11:52:36;4.07;;;2.50;;
8094;SDS011;4090;49.270;8.696;2022-09-12T11:55:21;2.70;;;2.50;;
8094;SDS011;4090;49.270;8.696;2022-09-12T11:58:06;2.75;;;2.55;;
8094;SDS011;4090;49.270;8.696;2022-09-12T12:00:50;4.60;;;2.70;;
8094;SDS011;4090;49.270;8.696;2022-09-12T12:03:38;3.88;;;2.65;;
8094;SDS011;4090;49.270;8.696;2022-09-12T12:06:23;3.35;;;2.80;;
8094;SDS011;4090;49.270;8.696;2022-09-12T12:09:10;2.92;;;2.53;;
8094;SDS011;4090;49.270;8.696;2022-09-12T12:11:54;2.92;;;2.60;;
8094;SDS011;4090;49.270;8.696;2022-09-12T12:14:39;3.33;;;2.80;;
8094;SDS011;4090;49.270;8.696;2022-09-12T12:17:25;3.03;;;2.70;;
8094;SDS011;4090;49.270;8.696;2022-09-12T12:20:12;3.10;;;2.58;;
8094;SDS011;4090;49.270;8.696;2022-09-12T12:22:57;2.85;;;2.65;;
8094;SDS011;4090;49.270;8.696;2022-09-12T12:25:40;3.03;;;2.78;;
8094;SDS011;4090;49.270;8.696;2022-09-12T12:38:26;2.40;;;2.20;;
8094;SDS011;4090;49.270;8.696;2022-09-12T12:47:30;2.92;;;2.40;;
8094;SDS011;4090;49.270;8.696;2022-09-12T12:50:19;2.40;;;2.20;;
8094;SDS011;4090;49.270;8.696;2022-09-12T12:53:13;2.42;;;2.22;;
8094;SDS011;4090;49.270;8.696;2022-09-12T12:56:00;2.88;;;2.60;;
8094;SDS011;4090;49.270;8.696;2022-09-12T12:58:42;2.53;;;2.28;;
8094;SDS011;4090;49.270;8.696;2022-09-12T13:01:24;4.35;;;2.90;;
8094;SDS011;4090;49.270;8.696;2022-09-12T13:04:11;2.45;;;2.25;;
8094;SDS011;4090;49.270;8.696;2022-09-12T13:06:57;2.50;;;2.30;;
8094;SDS011;4090;49.270;8.696;2022-09-12T13:09:44;2.42;;;2.00;;
8094;SDS011;4090;49.270;8.696;2022-09-12T13:12:32;2.50;;;2.30;;
8094;SDS011;4090;49.270;8.696;2022-09-12T13:18:31;2.30;;;2.20;;
8094;SDS011;4090;49.270;8.696;2022-09-12T13:21:22;2.30;;;2.10;;
8094;SDS011;4090;49.270;8.696;2022-09-12T13:24:11;1.77;;;1.67;;
8094;SDS011;4090;49.270;8.696;2022-09-12T13:26:56;3.40;;;2.30;;
8094;SDS011;4090;49.270;8.696;2022-09-12T13:29:38;2.50;;;2.30;;
8094;SDS011;4090;49.270;8.696;2022-09-12T13:32:20;4.43;;;1.90;;
8094;SDS011;4090;49.270;8.696;2022-09-12T13:35:04;2.10;;;2.00;;
8094;SDS011;4090;49.270;8.696;2022-09-12T13:37:54;2.72;;;2.10;;
8094;SDS011;4090;49.270;8.696;2022-09-12T13:40:46;2.97;;;2.00;;
8094;SDS011;4090;49.270;8.696;2022-09-12T13:43:41;2.00;;;1.85;;
8094;SDS011;4090;49.270;8.696;2022-09-12T13:46:26;2.70;;;2.10;;
8094;SDS011;4090;49.270;8.696;2022-09-12T13:49:15;1.70;;;1.60;;
8094;SDS011;4090;49.270;8.696;2022-09-12T13:52:02;2.15;;;1.98;;
8094;SDS011;4090;49.270;8.696;2022-09-12T13:54:47;2.78;;;2.15;;
8094;SDS011;4090;49.270;8.696;2022-09-12T13:57:34;2.25;;;2.03;;
8094;SDS011;4090;49.270;8.696;2022-09-12T14:00:19;3.60;;;2.25;;
8094;SDS011;4090;49.270;8.696;2022-09-12T14:03:01;3.30;;;1.98;;
8094;SDS011;4090;49.270;8.696;2022-09-12T14:06:23;2.17;;;1.73;;
8094;SDS011;4090;49.270;8.696;2022-09-12T14:09:10;2.30;;;2.10;;
8094;SDS011;4090;49.270;8.696;2022-09-12T14:11:54;2.28;;;2.08;;
8094;SDS011;4090;49.270;8.696;2022-09-12T14:14:38;2.17;;;1.90;;
8094;SDS011;4090;49.270;8.696;2022-09-12T14:17:30;2.13;;;1.95;;
8094;SDS011;4090;49.270;8.696;2022-09-12T14:20:15;3.92;;;2.08;;
8094;SDS011;4090;49.270;8.696;2022-09-12T14:22:58;2.60;;;1.90;;
8094;SDS011;4090;49.270;8.696;2022-09-12T14:25:42;2.67;;;1.95;;
8094;SDS011;4090;49.270;8.696;2022-09-12T14:28:27;1.92;;;1.75;;
8094;SDS011;4090;49.270;8.696;2022-09-12T14:31:19;2.72;;;1.90;;
8094;SDS011;4090;49.270;8.696;2022-09-12T14:34:09;1.92;;;1.83;;
8094;SDS011;4090;49.270;8.696;2022-09-12T14:36:54;2.13;;;2.03;;
8094;SDS011;4090;49.270;8.696;2022-09-12T14:39:37;3.90;;;2.13;;
8094;SDS011;4090;49.270;8.696;2022-09-12T14:42:21;1.80;;;1.70;;
8094;SDS011;4090;49.270;8.696;2022-09-12T14:45:12;1.63;;;1.52;;
8094;SDS011;4090;49.270;8.696;2022-09-12T14:47:58;2.13;;;1.92;;
8094;SDS011;4090;49.270;8.696;2022-09-12T14:50:41;1.80;;;1.70;;
8094;SDS011;4090;49.270;8.696;2022-09-12T14:53:25;1.60;;;1.50;;
8094;SDS011;4090;49.270;8.696;2022-09-12T14:56:12;1.92;;;1.73;;
8094;SDS011;4090;49.270;8.696;2022-09-12T14:59:18;1.85;;;1.70;;
8094;SDS011;4090;49.270;8.696;2022-09-12T15:05:14;2.45;;;1.45;;
8094;SDS011;4090;49.270;8.696;2022-09-12T15:08:01;1.63;;;1.52;;
8094;SDS011;4090;49.270;8.696;2022-09-12T15:10:43;2.08;;;1.90;;
8094;SDS011;4090;49.270;8.696;2022-09-12T15:13:25;2.45;;;1.58;;
8094;SDS011;4090;49.270;8.696;2022-09-12T15:16:10;1.58;;;1.48;;
8094;SDS011;4090;49.270;8.696;2022-09-12T15:18:52;3.75;;;1.80;;
8094;SDS011;4090;49.270;8.696;2022-09-12T15:21:34;2.25;;;1.70;;
8094;SDS011;4090;49.270;8.696;2022-09-12T15:24:17;1.60;;;1.50;;
8094;SDS011;4090;49.270;8.696;2022-09-12T15:26:59;1.67;;;1.50;;
8094;SDS011;4090;49.270;8.696;2022-09-12T15:29:41;1.98;;;1.70;;
8094;SDS011;4090;49.270;8.696;2022-09-12T15:32:24;2.55;;;1.35;;
8094;SDS011;4090;49.270;8.696;2022-09-12T15:35:08;1.60;;;1.50;;
8094;SDS011;4090;49.270;8.696;2022-09-12T15:37:56;1.70;;;1.60;;
8094;SDS011;4090;49.270;8.696;2022-09-12T15:40:38;1.60;;;1.50;;
8094;SDS011;4090;49.270;8.696;2022-09-12T15:43:20;1.60;;;1.50;;
8094;SDS011;4090;49.270;8.696;2022-09-12T15:46:05;2.85;;;1.65;;
8094;SDS011;4090;49.270;8.696;2022-09-12T15:48:48;3.22;;;1.60;;
8094;SDS011;4090;49.270;8.696;2022-09-12T15:51:30;2.40;;;1.40;;
8094;SDS011;4090;49.270;8.696;2022-09-12T15:54:12;1.73;;;1.63;;
8094;SDS011;4090;49.270;8.696;2022-09-12T15:56:55;2.97;;;1.40;;
8094;SDS011;4090;49.270;8.696;2022-09-12T15:59:36;2.05;;;1.48;;
8094;SDS011;4090;49.270;8.696;2022-09-12T16:02:18;1.70;;;1.60;;
8094;SDS011;4090;49.270;8.696;2022-09-12T16:05:02;3.45;;;1.48;;
8094;SDS011;4090;49.270;8.696;2022-09-12T16:07:44;2.60;;;1.60;;
8094;SDS011;4090;49.270;8.696;2022-09-12T16:10:26;1.95;;;1.60;;
8094;SDS011;4090;49.270;8.696;2022-09-12T16:13:10;2.05;;;1.70;;
8094;SDS011;4090;49.270;8.696;2022-09-12T16:15:54;2.55;;;1.40;;
8094;SDS011;4090;49.270;8.696;2022-09-12T16:18:37;2.20;;;1.80;;
8094;SDS011;4090;49.270;8.696;2022-09-12T16:21:21;2.53;;;1.80;;
8094;SDS011;4090;49.270;8.696;2022-09-12T16:24:03;1.95;;;1.70;;
8094;SDS011;4090;49.270;8.696;2022-09-12T16:26:45;2.45;;;1.63;;
8094;SDS011;4090;49.270;8.696;2022-09-12T16:29:27;5.45;;;1.85;;
8094;SDS011;4090;49.270;8.696;2022-09-12T16:32:09;1.70;;;1.60;;
8094;SDS011;4090;49.270;8.696;2022-09-12T16:34:51;1.67;;;1.58;;
8094;SDS011;4090;49.270;8.696;2022-09-12T16:37:34;1.80;;;1.70;;
8094;SDS011;4090;49.270;8.696;2022-09-12T16:40:16;3.58;;;1.70;;
8094;SDS011;4090;49.270;8.696;2022-09-12T16:42:58;2.30;;;1.80;;
8094;SDS011;4090;49.270;8.696;2022-09-12T16:45:40;2.13;;;1.80;;
8094;SDS011;4090;49.270;8.696;2022-09-12T16:48:22;3.33;;;2.10;;
8094;SDS011;4090;49.270;8.696;2022-09-12T16:51:04;2.05;;;1.88;;
8094;SDS011;4090;49.270;8.696;2022-09-12T16:53:48;16.30;;;3.30;;
8094;SDS011;4090;49.270;8.696;2022-09-12T16:56:30;3.55;;;2.90;;
8094;SDS011;4090;49.270;8.696;2022-09-12T16:59:12;4.22;;;2.42;;
8094;SDS011;4090;49.270;8.696;2022-09-12T17:01:55;7.95;;;5.45;;
8094;SDS011;4090;49.270;8.696;2022-09-12T17:04:37;9.77;;;6.10;;
8094;SDS011;4090;49.270;8.696;2022-09-12T17:07:19;8.50;;;6.88;;
8094;SDS011;4090;49.270;8.696;2022-09-12T17:10:03;19.02;;;13.20;;
8094;SDS011;4090;49.270;8.696;2022-09-12T17:12:45;4.43;;;3.90;;
8094;SDS011;4090;49.270;8.696;2022-09-12T17:15:27;5.05;;;2.67;;
8094;SDS011;4090;49.270;8.696;2022-09-12T17:18:09;3.30;;;2.80;;
8094;SDS011;4090;49.270;8.696;2022-09-12T17:20:51;6.57;;;5.05;;
8094;SDS011;4090;49.270;8.696;2022-09-12T17:23:33;4.85;;;3.80;;
8094;SDS011;4090;49.270;8.696;2022-09-12T17:26:16;6.10;;;3.08;;
8094;SDS011;4090;49.270;8.696;2022-09-12T17:28:59;2.83;;;2.30;;
8094;SDS011;4090;49.270;8.696;2022-09-12T17:31:42;4.22;;;2.58;;
8094;SDS011;4090;49.270;8.696;2022-09-12T17:34:25;6.93;;;2.88;;
8094;SDS011;4090;49.270;8.696;2022-09-12T17:37:06;5.72;;;2.78;;